createdAt,value
2023-08-01T00:06:17.158Z,13.75
2023-08-01T00:08:59.599Z,14.13
2023-08-01T00:11:38.678Z,11.82
2023-08-01T00:14:10.560Z,13.63
2023-08-01T00:16:59.621Z,12.50
2023-08-01T00:20:40.832Z,12.25
2023-08-01T00:26:07.017Z,12.32
2023-08-01T00:33:26.897Z,14.13
2023-08-01T00:36:14.465Z,14.55
2023-08-01T00:48:10.636Z,13.27
2023-08-01T00:51:36.802Z,12.13
2023-08-01T00:57:57.313Z,11.93
2023-08-01T01:00:24.743Z,12.45
2023-08-01T01:03:01.818Z,12.07
2023-08-01T01:05:46.605Z,11.70
2023-08-01T01:09:00.282Z,10.98
2023-08-01T01:11:30.573Z,12.57
2023-08-01T01:14:23.490Z,12.50
2023-08-01T01:19:54.079Z,12.20
2023-08-01T01:20:39.013Z,13.43
2023-08-01T01:27:02.351Z,13.45
2023-08-01T01:32:25.504Z,13.55
2023-08-01T01:35:00.276Z,13.82
2023-08-01T01:37:58.326Z,13.00
2023-08-01T01:40:36.084Z,14.02
2023-08-01T01:43:45.930Z,13.30
2023-08-01T01:53:05.776Z,14.60
2023-08-01T01:56:49.370Z,14.90
2023-08-01T02:02:17.435Z,15.48
2023-08-01T02:05:08.857Z,16.23
2023-08-01T02:09:27.320Z,15.75
2023-08-01T02:13:16.103Z,17.77
2023-08-01T02:20:00.526Z,17.40
2023-08-01T02:23:10.380Z,17.27
2023-08-01T02:26:39.659Z,17.65
2023-08-01T02:30:44.585Z,19.35
2023-08-01T02:41:27.372Z,16.15
2023-08-01T02:50:52.067Z,13.95
2023-08-01T02:56:13.328Z,13.15
2023-08-01T02:56:44.641Z,12.13
2023-08-01T02:59:11.912Z,12.13
2023-08-01T03:02:26.303Z,12.07
2023-08-01T03:04:47.062Z,12.77
2023-08-01T03:07:47.508Z,13.18
2023-08-01T03:10:30.924Z,12.40
2023-08-01T03:13:13.739Z,13.10
2023-08-01T03:16:26.768Z,12.68
2023-08-01T03:19:58.559Z,12.73
2023-08-01T03:23:24.317Z,13.63
2023-08-01T03:29:29.239Z,18.25
2023-08-01T03:32:46.757Z,14.13
2023-08-01T03:35:33.555Z,14.15
2023-08-01T03:38:00.750Z,15.90
2023-08-01T03:40:27.979Z,15.20
2023-08-01T03:42:56.849Z,15.65
2023-08-01T03:45:33.149Z,16.73
2023-08-01T03:48:03.037Z,16.67
2023-08-01T03:50:36.645Z,17.77
2023-08-01T03:53:10.646Z,18.23
2023-08-01T03:55:38.008Z,18.20
2023-08-01T03:58:05.457Z,19.50
2023-08-01T04:00:54.664Z,21.70
2023-08-01T04:03:40.282Z,23.88
2023-08-01T04:10:32.155Z,27.25
2023-08-01T04:15:08.973Z,27.52
2023-08-01T04:17:55.421Z,30.05
2023-08-01T04:21:30.127Z,27.45
2023-08-01T04:34:29.329Z,27.20
2023-08-01T04:37:15.951Z,26.38
2023-08-01T04:40:45.160Z,30.27
2023-08-01T04:43:20.103Z,31.13
2023-08-01T04:45:50.637Z,30.35
2023-08-01T04:48:34.131Z,31.60
2023-08-01T04:53:30.108Z,35.35
2023-08-01T04:56:46.203Z,32.83
2023-08-01T05:00:16.294Z,30.98
2023-08-01T05:02:58.649Z,30.98
2023-08-01T05:05:32.153Z,26.08
2023-08-01T05:08:05.837Z,26.95
2023-08-01T05:10:41.691Z,24.33
2023-08-01T05:16:20.940Z,24.05
2023-08-01T05:18:51.179Z,24.33
2023-08-01T05:21:18.381Z,23.15
2023-08-01T05:26:45.187Z,23.77
2023-08-01T05:29:15.602Z,23.25
2023-08-01T05:31:45.793Z,24.15
2023-08-01T05:34:18.674Z,24.95
2023-08-01T05:36:54.901Z,25.67
2023-08-01T05:39:21.748Z,23.48
2023-08-01T05:41:54.426Z,22.65
2023-08-01T05:44:24.249Z,22.00
2023-08-01T05:46:51.152Z,20.67
2023-08-01T05:49:18.285Z,18.65
2023-08-01T05:51:45.129Z,17.63
2023-08-01T05:54:11.875Z,18.23
2023-08-01T05:56:38.959Z,17.15
2023-08-01T05:59:06.575Z,17.27
2023-08-01T06:01:33.422Z,17.77
2023-08-01T06:04:00.569Z,18.65
2023-08-01T06:06:27.393Z,18.63
2023-08-01T06:08:54.306Z,24.02
2023-08-01T06:11:21.195Z,18.63
2023-08-01T06:13:47.927Z,19.02
2023-08-01T06:16:14.683Z,19.60
2023-08-01T06:18:41.560Z,20.05
2023-08-01T06:21:10.149Z,19.73
2023-08-01T06:23:37.828Z,18.98
2023-08-01T06:26:04.609Z,17.23
2023-08-01T06:28:32.147Z,18.13
2023-08-01T06:30:59.018Z,18.08
2023-08-01T06:33:25.724Z,18.42
2023-08-01T06:35:52.428Z,19.38
2023-08-01T06:38:19.164Z,19.33
2023-08-01T06:40:45.902Z,19.65
2023-08-01T06:43:12.636Z,19.60
2023-08-01T06:45:39.375Z,19.52
2023-08-01T06:48:06.193Z,18.40
2023-08-01T06:50:33.108Z,18.33
2023-08-01T06:52:59.853Z,16.92
2023-08-01T06:55:26.584Z,17.13
2023-08-01T06:57:53.677Z,17.40
2023-08-01T07:00:20.959Z,16.98
2023-08-01T07:02:48.110Z,17.23
2023-08-01T07:05:15.280Z,16.88
2023-08-01T07:07:42.027Z,16.58
2023-08-01T07:10:09.233Z,18.23
2023-08-01T07:12:35.975Z,17.05
2023-08-01T07:15:02.994Z,15.75
2023-08-01T07:17:30.289Z,16.27
2023-08-01T07:19:57.096Z,16.55
2023-08-01T07:22:23.946Z,17.15
2023-08-01T07:24:55.091Z,14.82
2023-08-01T07:27:22.380Z,14.18
2023-08-01T07:29:49.231Z,14.13
2023-08-01T07:32:16.113Z,13.13
2023-08-01T07:34:42.852Z,13.70
2023-08-01T07:37:09.768Z,13.38
2023-08-01T07:39:36.704Z,11.00
2023-08-01T07:42:03.861Z,9.88
2023-08-01T07:44:31.991Z,9.30
2023-08-01T07:46:58.948Z,10.50
2023-08-01T07:49:26.070Z,9.07
2023-08-01T07:51:52.925Z,9.98
2023-08-01T07:54:19.714Z,8.80
2023-08-01T07:56:49.784Z,8.13
2023-08-01T07:59:16.929Z,7.70
2023-08-01T08:01:43.817Z,7.68
2023-08-01T08:04:10.651Z,8.43
2023-08-01T08:06:38.013Z,8.63
2023-08-01T08:09:05.520Z,8.40
2023-08-01T08:11:32.232Z,9.43
2023-08-01T08:13:58.975Z,9.52
2023-08-01T08:16:26.013Z,8.27
2023-08-01T08:18:52.924Z,8.30
2023-08-01T08:21:19.682Z,8.43
2023-08-01T08:23:46.376Z,8.95
2023-08-01T08:26:13.103Z,10.07
2023-08-01T08:31:07.786Z,8.55
2023-08-01T08:33:34.725Z,10.25
2023-08-01T08:36:01.560Z,9.93
2023-08-01T08:38:29.966Z,10.25
2023-08-01T08:41:03.567Z,10.45
2023-08-01T08:43:34.285Z,9.65
2023-08-01T08:46:02.470Z,10.25
2023-08-01T08:48:29.968Z,9.80
2023-08-01T08:51:01.847Z,11.05
2023-08-01T08:53:29.183Z,9.65
2023-08-01T08:55:56.344Z,10.35
2023-08-01T08:58:23.631Z,10.35
2023-08-01T09:00:50.905Z,9.18
2023-08-01T09:03:18.022Z,7.07
2023-08-01T09:06:06.581Z,7.72
2023-08-01T09:08:36.993Z,8.55
2023-08-01T09:11:05.343Z,9.13
2023-08-01T09:13:32.461Z,8.13
2023-08-01T09:15:59.614Z,9.30
2023-08-01T09:18:26.664Z,8.32
2023-08-01T09:20:53.771Z,7.90
2023-08-01T09:23:20.614Z,8.13
2023-08-01T09:25:47.741Z,8.05
2023-08-01T09:28:23.187Z,9.05
2023-08-01T09:30:59.126Z,7.60
2023-08-01T09:33:26.348Z,8.60
2023-08-01T09:35:53.703Z,10.05
2023-08-01T09:38:21.666Z,8.63
2023-08-01T09:40:49.096Z,7.85
2023-08-01T09:43:16.512Z,7.55
2023-08-01T09:45:55.823Z,7.50
2023-08-01T09:48:30.004Z,7.25
2023-08-01T09:51:06.918Z,6.60
2023-08-01T09:53:33.879Z,7.13
2023-08-01T09:56:04.129Z,5.75
2023-08-01T09:58:35.601Z,6.72
2023-08-01T10:01:02.593Z,6.85
2023-08-01T10:03:30.490Z,7.07
2023-08-01T10:05:58.024Z,6.03
2023-08-01T10:08:25.496Z,5.32
2023-08-01T10:10:53.991Z,5.20
2023-08-01T10:13:22.070Z,5.03
2023-08-01T10:15:49.310Z,4.00
2023-08-01T10:18:16.744Z,4.25
2023-08-01T10:20:44.538Z,4.18
2023-08-01T10:23:11.800Z,4.22
2023-08-01T10:25:39.892Z,5.10
2023-08-01T10:28:08.099Z,4.35
2023-08-01T10:30:35.341Z,4.20
2023-08-01T10:33:02.615Z,3.75
2023-08-01T10:35:39.623Z,3.45
2023-08-01T10:38:06.411Z,3.80
2023-08-01T10:40:43.996Z,4.22
2023-08-01T10:43:22.329Z,3.72
2023-08-01T10:45:49.374Z,3.75
2023-08-01T10:48:16.389Z,3.53
2023-08-01T10:50:43.125Z,3.60
2023-08-01T10:53:11.196Z,3.95
2023-08-01T10:55:46.530Z,3.33
2023-08-01T10:58:14.294Z,3.50
2023-08-01T11:00:43.202Z,3.85
2023-08-01T11:03:10.165Z,4.70
2023-08-01T11:05:37.042Z,4.38
2023-08-01T11:08:04.797Z,4.32
2023-08-01T11:10:32.881Z,4.82
2023-08-01T11:13:00.552Z,4.18
2023-08-01T11:15:27.389Z,5.38
2023-08-01T11:17:55.332Z,5.13
2023-08-01T11:20:24.034Z,5.10
2023-08-01T11:22:57.420Z,5.07
2023-08-01T11:25:44.746Z,5.25
2023-08-01T11:28:13.085Z,4.68
2023-08-01T11:30:40.690Z,5.50
2023-08-01T11:33:33.572Z,4.43
2023-08-01T11:36:01.134Z,5.28
2023-08-01T11:38:34.251Z,4.63
2023-08-01T11:41:08.338Z,5.13
2023-08-01T11:43:40.890Z,4.93
2023-08-01T11:46:07.715Z,5.28
2023-08-01T11:48:34.648Z,4.78
2023-08-01T11:51:02.263Z,4.70
2023-08-01T11:53:30.268Z,4.57
2023-08-01T11:55:59.964Z,4.88
2023-08-01T11:58:30.021Z,3.92
2023-08-01T12:01:08.853Z,4.43
2023-08-01T12:04:03.114Z,4.03
2023-08-01T12:06:35.340Z,4.10
2023-08-01T12:09:14.216Z,4.25
2023-08-01T12:11:42.580Z,3.70
2023-08-01T12:14:11.776Z,5.18
2023-08-01T12:16:46.152Z,5.10
2023-08-01T12:19:18.747Z,5.57
2023-08-01T12:21:45.652Z,3.83
2023-08-01T12:24:12.380Z,4.28
2023-08-01T12:26:39.433Z,3.95
2023-08-01T12:29:06.418Z,3.58
2023-08-01T12:31:33.249Z,3.70
2023-08-01T12:34:00.080Z,4.00
2023-08-01T12:36:26.900Z,3.83
2023-08-01T12:38:54.052Z,4.32
2023-08-01T12:41:20.868Z,3.88
2023-08-01T12:43:47.638Z,4.50
2023-08-01T12:46:14.444Z,4.40
2023-08-01T12:48:41.531Z,4.10
2023-08-01T12:51:11.503Z,4.18
2023-08-01T12:53:40.476Z,4.15
2023-08-01T12:56:10.035Z,4.32
2023-08-01T12:58:38.038Z,3.92
2023-08-01T13:01:07.057Z,4.30
2023-08-01T13:03:34.738Z,3.67
2023-08-01T13:06:01.827Z,4.00
2023-08-01T13:08:30.392Z,4.30
2023-08-01T13:10:57.708Z,4.25
2023-08-01T13:13:24.449Z,4.35
2023-08-01T13:15:51.283Z,4.57
2023-08-01T13:18:18.970Z,4.97
2023-08-01T13:20:45.757Z,4.65
2023-08-01T13:23:12.514Z,5.03
2023-08-01T13:25:39.211Z,4.32
2023-08-01T13:28:05.978Z,4.93
2023-08-01T13:30:32.717Z,4.50
2023-08-01T13:32:59.510Z,4.65
2023-08-01T13:35:26.374Z,4.80
2023-08-01T13:37:53.113Z,4.85
2023-08-01T13:40:21.040Z,4.65
2023-08-01T13:42:48.604Z,5.95
2023-08-01T13:45:15.624Z,4.18
2023-08-01T13:47:42.461Z,4.53
2023-08-01T13:50:10.054Z,4.57
2023-08-01T13:52:40.230Z,4.55
2023-08-01T13:55:08.685Z,4.32
2023-08-01T13:57:35.755Z,4.75
2023-08-01T14:00:12.271Z,5.82
2023-08-01T14:02:42.958Z,9.55
2023-08-01T14:05:10.364Z,5.15
2023-08-01T14:07:41.608Z,5.68
2023-08-01T14:10:11.026Z,5.03
2023-08-01T14:12:37.902Z,5.68
2023-08-01T14:15:05.503Z,4.68
2023-08-01T14:17:32.509Z,5.82
2023-08-01T14:20:00.148Z,4.88
2023-08-01T14:22:27.454Z,4.78
2023-08-01T14:24:54.226Z,4.88
2023-08-01T14:27:21.046Z,5.22
2023-08-01T14:29:48.003Z,5.28
2023-08-01T14:32:17.323Z,5.28
2023-08-01T14:34:44.148Z,5.00
2023-08-01T14:37:10.831Z,5.72
2023-08-01T14:39:37.544Z,4.78
2023-08-01T14:42:05.767Z,5.43
2023-08-01T14:44:32.938Z,5.68
2023-08-01T14:46:59.793Z,4.75
2023-08-01T14:49:30.171Z,4.95
2023-08-01T14:51:57.089Z,4.75
2023-08-01T14:54:38.968Z,5.47
2023-08-01T14:57:07.975Z,4.82
2023-08-01T14:59:35.476Z,5.60
2023-08-01T15:02:02.419Z,5.50
2023-08-01T15:04:29.552Z,5.85
2023-08-01T15:06:56.498Z,5.20
2023-08-01T15:09:23.293Z,5.97
2023-08-01T15:11:50.268Z,5.63
2023-08-01T15:14:17.114Z,6.00
2023-08-01T15:16:44.284Z,6.80
2023-08-01T15:19:11.172Z,6.45
2023-08-01T15:21:38.008Z,6.00
2023-08-01T15:24:05.296Z,6.93
2023-08-01T15:26:32.547Z,6.25
2023-08-01T15:28:59.299Z,5.30
2023-08-01T15:31:26.354Z,5.30
2023-08-01T15:33:53.407Z,5.13
2023-08-01T15:36:26.973Z,5.53
2023-08-01T15:38:53.791Z,5.20
2023-08-01T15:41:20.821Z,8.48
2023-08-01T15:43:47.608Z,5.75
2023-08-01T15:46:15.055Z,5.70
2023-08-01T15:48:41.917Z,5.57
2023-08-01T15:51:09.148Z,5.13
2023-08-01T15:53:36.694Z,5.60
2023-08-01T15:56:06.333Z,4.95
2023-08-01T15:58:33.421Z,5.97
2023-08-01T16:01:01.464Z,4.82
2023-08-01T16:03:28.903Z,6.32
2023-08-01T16:05:56.842Z,4.68
2023-08-01T16:08:23.596Z,6.07
2023-08-01T16:10:50.389Z,5.20
2023-08-01T16:13:17.213Z,5.28
2023-08-01T16:15:44.021Z,5.07
2023-08-01T16:18:11.215Z,5.85
2023-08-01T16:20:38.218Z,5.72
2023-08-01T16:23:06.373Z,6.65
2023-08-01T16:25:33.961Z,5.47
2023-08-01T16:28:00.820Z,5.85
2023-08-01T16:30:27.767Z,5.75
2023-08-01T16:32:54.847Z,5.50
2023-08-01T16:35:21.689Z,5.45
2023-08-01T16:37:48.524Z,5.03
2023-08-01T16:40:15.418Z,4.32
2023-08-01T16:42:42.873Z,5.55
2023-08-01T16:45:11.288Z,5.50
2023-08-01T16:47:53.416Z,5.93
2023-08-01T16:50:23.192Z,5.57
2023-08-01T16:52:55.699Z,5.45
2023-08-01T16:55:24.528Z,5.13
2023-08-01T16:58:00.025Z,5.80
2023-08-01T17:00:37.319Z,4.88
2023-08-01T17:03:10.885Z,5.78
2023-08-01T17:05:40.047Z,4.72
2023-08-01T17:08:12.068Z,5.80
2023-08-01T17:10:44.929Z,6.40
2023-08-01T17:13:21.071Z,5.45
2023-08-01T17:15:59.641Z,5.60
2023-08-01T17:18:28.437Z,5.05
2023-08-01T17:20:55.344Z,5.53
2023-08-01T17:23:33.374Z,5.40
2023-08-01T17:26:01.710Z,5.60
2023-08-01T17:28:36.435Z,5.78
2023-08-01T17:31:11.726Z,5.95
2023-08-01T17:33:47.168Z,5.93
2023-08-01T17:36:18.456Z,6.43
2023-08-01T17:38:48.364Z,6.15
2023-08-01T17:41:28.204Z,5.10
2023-08-01T17:43:58.793Z,5.70
2023-08-01T17:46:29.971Z,6.03
2023-08-01T17:48:58.443Z,5.47
2023-08-01T17:51:25.385Z,5.70
2023-08-01T17:53:52.985Z,6.50
2023-08-01T17:56:31.122Z,5.53
2023-08-01T17:59:01.920Z,5.75
2023-08-01T18:01:34.975Z,5.25
2023-08-01T18:04:07.030Z,6.93
2023-08-01T18:06:34.431Z,6.07
2023-08-01T18:09:06.868Z,6.20
2023-08-01T18:11:36.728Z,5.60
2023-08-01T18:14:03.582Z,5.63
2023-08-01T18:16:30.552Z,6.63
2023-08-01T18:18:57.573Z,5.65
2023-08-01T18:21:24.652Z,5.18
2023-08-01T18:23:51.639Z,6.43
2023-08-01T18:26:26.206Z,6.95
2023-08-01T18:28:56.472Z,6.60
2023-08-01T18:31:24.530Z,5.80
2023-08-01T18:33:51.470Z,6.18
2023-08-01T18:36:29.074Z,6.47
2023-08-01T18:39:58.741Z,6.03
2023-08-01T18:42:13.578Z,6.70
2023-08-01T18:45:10.675Z,6.50
2023-08-01T18:47:31.175Z,6.80
2023-08-01T18:50:00.709Z,7.68
2023-08-01T18:52:30.777Z,7.30
2023-08-01T18:54:57.480Z,9.73
2023-08-01T18:57:46.033Z,6.82
2023-08-01T19:00:22.726Z,8.23
2023-08-01T19:03:33.622Z,7.47
2023-08-01T19:06:01.235Z,7.78
2023-08-01T19:08:31.476Z,7.97
2023-08-01T19:14:25.993Z,7.47
2023-08-01T19:14:54.575Z,7.72
2023-08-01T19:16:53.227Z,7.25
2023-08-01T19:19:43.583Z,7.47
2023-08-01T19:22:13.602Z,7.00
2023-08-01T19:24:41.347Z,7.47
2023-08-01T19:27:11.885Z,7.10
2023-08-01T19:29:52.693Z,7.10
2023-08-01T19:32:33.911Z,7.65
2023-08-01T19:35:01.108Z,6.47
2023-08-01T19:37:31.234Z,6.43
2023-08-01T19:39:58.553Z,6.57
2023-08-01T19:42:26.547Z,6.70
2023-08-01T19:44:57.752Z,6.10
2023-08-01T19:47:26.260Z,6.18
2023-08-01T19:49:55.276Z,6.32
2023-08-01T19:52:23.504Z,6.57
2023-08-01T19:54:52.091Z,6.88
2023-08-01T19:57:22.876Z,7.32
2023-08-01T19:59:51.872Z,7.72
2023-08-01T20:04:51.111Z,8.88
2023-08-01T20:05:45.967Z,10.57
2023-08-01T20:08:50.220Z,11.50
2023-08-01T20:13:56.975Z,11.10
2023-08-01T20:16:24.757Z,10.68
2023-08-01T20:18:57.173Z,12.15
2023-08-01T20:21:24.243Z,11.70
2023-08-01T20:23:51.526Z,11.38
2023-08-01T20:26:18.602Z,11.57
2023-08-01T20:28:45.814Z,10.18
2023-08-01T20:31:13.588Z,10.32
2023-08-01T20:33:40.850Z,11.10
2023-08-01T20:36:08.153Z,10.82
2023-08-01T20:38:35.348Z,11.77
2023-08-01T20:41:07.230Z,11.80
2023-08-01T20:43:35.387Z,11.15
2023-08-01T20:46:02.605Z,11.40
2023-08-01T20:48:30.272Z,11.07
2023-08-01T20:50:58.020Z,11.18
2023-08-01T20:53:25.371Z,11.90
2023-08-01T20:55:52.739Z,12.82
2023-08-01T20:58:22.252Z,14.68
2023-08-01T21:31:41.928Z,13.48
2023-08-01T21:34:10.591Z,10.30
2023-08-01T21:36:39.532Z,10.60
2023-08-01T21:39:11.188Z,10.43
2023-08-01T21:41:39.567Z,9.18
2023-08-01T21:44:07.300Z,8.98
2023-08-01T21:46:34.568Z,9.65
2023-08-01T21:49:01.834Z,9.23
2023-08-01T21:51:30.670Z,8.98
2023-08-01T21:53:58.865Z,8.68
2023-08-01T21:56:26.275Z,7.68
2023-08-01T21:58:54.662Z,8.50
2023-08-01T22:01:22.148Z,8.82
2023-08-01T22:03:51.723Z,7.93
2023-08-01T22:06:20.502Z,9.25
2023-08-01T22:08:52.135Z,8.32
2023-08-01T22:12:27.074Z,8.30
2023-08-01T22:14:22.635Z,8.68
2023-08-01T22:16:51.709Z,7.40
2023-08-01T22:19:41.528Z,9.55
